sensor_id;sensor_type;location;lat;lon;timestamp;P1;durP1;ratioP1;P2;durP2;ratioP2
11620;SDS011;5866;49.094;11.900;2023-04-03T00:00:46;14.07;;;13.27;;
11620;SDS011;5866;49.094;11.900;2023-04-03T00:03:15;15.50;;;14.60;;
11620;SDS011;5866;49.094;11.900;2023-04-03T00:05:43;14.43;;;13.53;;
11620;SDS011;5866;49.094;11.900;2023-04-03T00:08:11;14.87;;;13.97;;
11620;SDS011;5866;49.094;11.900;2023-04-03T00:10:40;13.67;;;12.87;;
11620;SDS011;5866;49.094;11.900;2023-04-03T00:13:07;13.30;;;12.47;;
11620;SDS011;5866;49.094;11.900;2023-04-03T00:15:36;14.03;;;13.23;;
11620;SDS011;5866;49.094;11.900;2023-04-03T00:18:05;13.50;;;12.70;;
11620;SDS011;5866;49.094;11.900;2023-04-03T00:20:33;11.93;;;11.07;;
11620;SDS011;5866;49.094;11.900;2023-04-03T00:23:01;13.23;;;12.43;;
11620;SDS011;5866;49.094;11.900;2023-04-03T00:25:29;10.07;;;9.47;;
11620;SDS011;5866;49.094;11.900;2023-04-03T00:27:58;9.77;;;9.17;;
11620;SDS011;5866;49.094;11.900;2023-04-03T00:30:26;11.30;;;10.57;;
11620;SDS011;5866;49.094;11.900;2023-04-03T00:32:53;8.17;;;7.57;;
11620;SDS011;5866;49.094;11.900;2023-04-03T00:35:22;8.93;;;8.33;;
11620;SDS011;5866;49.094;11.900;2023-04-03T00:37:50;8.70;;;8.00;;
11620;SDS011;5866;49.094;11.900;2023-04-03T00:40:19;6.20;;;5.70;;
11620;SDS011;5866;49.094;11.900;2023-04-03T00:42:50;8.63;;;7.93;;
11620;SDS011;5866;49.094;11.900;2023-04-03T00:45:25;6.90;;;6.30;;
11620;SDS011;5866;49.094;11.900;2023-04-03T00:47:56;7.53;;;7.03;;
11620;SDS011;5866;49.094;11.900;2023-04-03T00:50:28;6.87;;;5.47;;
11620;SDS011;5866;49.094;11.900;2023-04-03T00:52:56;5.47;;;4.97;;
11620;SDS011;5866;49.094;11.900;2023-04-03T00:55:24;5.70;;;5.30;;
11620;SDS011;5866;49.094;11.900;2023-04-03T00:57:52;6.23;;;5.63;;
11620;SDS011;5866;49.094;11.900;2023-04-03T01:00:22;5.67;;;5.17;;
11620;SDS011;5866;49.094;11.900;2023-04-03T01:02:52;5.60;;;5.07;;
11620;SDS011;5866;49.094;11.900;2023-04-03T01:05:21;6.00;;;5.50;;
11620;SDS011;5866;49.094;11.900;2023-04-03T01:07:49;6.20;;;5.70;;
11620;SDS011;5866;49.094;11.900;2023-04-03T01:10:18;6.37;;;5.87;;
11620;SDS011;5866;49.094;11.900;2023-04-03T01:12:47;6.33;;;5.93;;
11620;SDS011;5866;49.094;11.900;2023-04-03T01:15:17;6.57;;;6.07;;
11620;SDS011;5866;49.094;11.900;2023-04-03T01:17:48;6.97;;;6.37;;
11620;SDS011;5866;49.094;11.900;2023-04-03T01:20:23;7.13;;;6.27;;
11620;SDS011;5866;49.094;11.900;2023-04-03T01:23:12;8.23;;;7.73;;
11620;SDS011;5866;49.094;11.900;2023-04-03T01:25:50;7.40;;;6.70;;
11620;SDS011;5866;49.094;11.900;2023-04-03T01:28:20;6.73;;;6.33;;
11620;SDS011;5866;49.094;11.900;2023-04-03T01:30:50;7.37;;;6.90;;
11620;SDS011;5866;49.094;11.900;2023-04-03T01:33:26;7.93;;;7.33;;
11620;SDS011;5866;49.094;11.900;2023-04-03T01:35:53;6.33;;;5.93;;
11620;SDS011;5866;49.094;11.900;2023-04-03T01:38:21;6.60;;;6.10;;
11620;SDS011;5866;49.094;11.900;2023-04-03T01:40:48;7.00;;;6.50;;
11620;SDS011;5866;49.094;11.900;2023-04-03T01:43:16;7.23;;;6.63;;
11620;SDS011;5866;49.094;11.900;2023-04-03T01:45:44;8.17;;;7.57;;
11620;SDS011;5866;49.094;11.900;2023-04-03T01:48:12;7.03;;;6.50;;
11620;SDS011;5866;49.094;11.900;2023-04-03T01:50:41;7.07;;;6.57;;
11620;SDS011;5866;49.094;11.900;2023-04-03T01:53:09;7.40;;;6.90;;
11620;SDS011;5866;49.094;11.900;2023-04-03T01:55:36;7.03;;;6.53;;
11620;SDS011;5866;49.094;11.900;2023-04-03T01:58:04;7.10;;;6.60;;
11620;SDS011;5866;49.094;11.900;2023-04-03T02:00:31;6.40;;;6.00;;
11620;SDS011;5866;49.094;11.900;2023-04-03T02:02:59;6.93;;;6.43;;
11620;SDS011;5866;49.094;11.900;2023-04-03T02:05:27;7.03;;;6.63;;
11620;SDS011;5866;49.094;11.900;2023-04-03T02:07:56;6.33;;;5.93;;
11620;SDS011;5866;49.094;11.900;2023-04-03T02:10:23;7.53;;;6.93;;
11620;SDS011;5866;49.094;11.900;2023-04-03T02:12:51;6.70;;;6.20;;
11620;SDS011;5866;49.094;11.900;2023-04-03T02:15:18;6.93;;;6.37;;
11620;SDS011;5866;49.094;11.900;2023-04-03T02:17:46;7.00;;;6.50;;
11620;SDS011;5866;49.094;11.900;2023-04-03T02:20:13;6.27;;;5.77;;
11620;SDS011;5866;49.094;11.900;2023-04-03T02:22:41;6.97;;;6.37;;
11620;SDS011;5866;49.094;11.900;2023-04-03T02:25:10;6.47;;;6.00;;
11620;SDS011;5866;49.094;11.900;2023-04-03T02:27:38;6.40;;;5.90;;
11620;SDS011;5866;49.094;11.900;2023-04-03T02:30:06;6.50;;;5.90;;
11620;SDS011;5866;49.094;11.900;2023-04-03T02:32:36;5.87;;;5.47;;
11620;SDS011;5866;49.094;11.900;2023-04-03T02:35:04;6.67;;;6.17;;
11620;SDS011;5866;49.094;11.900;2023-04-03T02:37:32;6.43;;;6.03;;
11620;SDS011;5866;49.094;11.900;2023-04-03T02:40:00;6.63;;;6.13;;
11620;SDS011;5866;49.094;11.900;2023-04-03T02:42:29;5.87;;;5.47;;
11620;SDS011;5866;49.094;11.900;2023-04-03T02:44:56;6.10;;;5.60;;
11620;SDS011;5866;49.094;11.900;2023-04-03T02:47:26;5.63;;;5.23;;
11620;SDS011;5866;49.094;11.900;2023-04-03T02:49:54;6.20;;;5.80;;
11620;SDS011;5866;49.094;11.900;2023-04-03T02:52:21;6.53;;;5.50;;
11620;SDS011;5866;49.094;11.900;2023-04-03T02:54:49;6.03;;;5.53;;
11620;SDS011;5866;49.094;11.900;2023-04-03T02:57:16;5.40;;;5.00;;
11620;SDS011;5866;49.094;11.900;2023-04-03T02:59:47;5.80;;;5.40;;
11620;SDS011;5866;49.094;11.900;2023-04-03T03:02:14;6.03;;;5.53;;
11620;SDS011;5866;49.094;11.900;2023-04-03T03:04:42;4.90;;;4.50;;
11620;SDS011;5866;49.094;11.900;2023-04-03T03:07:09;4.47;;;4.13;;
11620;SDS011;5866;49.094;11.900;2023-04-03T03:09:37;5.23;;;4.73;;
11620;SDS011;5866;49.094;11.900;2023-04-03T03:12:04;5.23;;;4.60;;
11620;SDS011;5866;49.094;11.900;2023-04-03T03:14:32;5.00;;;4.60;;
11620;SDS011;5866;49.094;11.900;2023-04-03T03:17:01;6.00;;;5.60;;
11620;SDS011;5866;49.094;11.900;2023-04-03T03:19:28;4.50;;;4.20;;
11620;SDS011;5866;49.094;11.900;2023-04-03T03:21:56;4.90;;;4.47;;
11620;SDS011;5866;49.094;11.900;2023-04-03T03:24:24;4.97;;;4.50;;
11620;SDS011;5866;49.094;11.900;2023-04-03T03:26:51;5.00;;;4.60;;
11620;SDS011;5866;49.094;11.900;2023-04-03T03:29:19;6.27;;;5.73;;
11620;SDS011;5866;49.094;11.900;2023-04-03T03:31:46;6.70;;;5.37;;
11620;SDS011;5866;49.094;11.900;2023-04-03T03:34:15;12.47;;;11.57;;
11620;SDS011;5866;49.094;11.900;2023-04-03T03:36:43;34.33;;;32.33;;
11620;SDS011;5866;49.094;11.900;2023-04-03T03:39:10;18.87;;;17.80;;
11620;SDS011;5866;49.094;11.900;2023-04-03T03:41:38;34.23;;;32.33;;
11620;SDS011;5866;49.094;11.900;2023-04-03T03:44:06;22.33;;;21.13;;
11620;SDS011;5866;49.094;11.900;2023-04-03T03:46:33;9.83;;;9.07;;
11620;SDS011;5866;49.094;11.900;2023-04-03T03:49:01;8.17;;;7.53;;
11620;SDS011;5866;49.094;11.900;2023-04-03T03:51:30;13.27;;;12.37;;
11620;SDS011;5866;49.094;11.900;2023-04-03T03:53:57;10.73;;;9.87;;
11620;SDS011;5866;49.094;11.900;2023-04-03T03:56:25;30.63;;;28.83;;
11620;SDS011;5866;49.094;11.900;2023-04-03T03:58:52;18.20;;;17.10;;
11620;SDS011;5866;49.094;11.900;2023-04-03T04:01:22;30.07;;;28.20;;
11620;SDS011;5866;49.094;11.900;2023-04-03T04:03:50;24.03;;;22.63;;
11620;SDS011;5866;49.094;11.900;2023-04-03T04:06:17;12.67;;;11.87;;
11620;SDS011;5866;49.094;11.900;2023-04-03T04:08:46;14.60;;;13.77;;
11620;SDS011;5866;49.094;11.900;2023-04-03T04:11:14;10.23;;;9.43;;
11620;SDS011;5866;49.094;11.900;2023-04-03T04:13:41;24.57;;;22.87;;
11620;SDS011;5866;49.094;11.900;2023-04-03T04:16:09;27.93;;;26.43;;
11620;SDS011;5866;49.094;11.900;2023-04-03T04:18:36;20.73;;;19.40;;
11620;SDS011;5866;49.094;11.900;2023-04-03T04:21:04;72.50;;;68.57;;
11620;SDS011;5866;49.094;11.900;2023-04-03T04:23:31;80.50;;;76.27;;
11620;SDS011;5866;49.094;11.900;2023-04-03T04:26:00;65.20;;;61.70;;
11620;SDS011;5866;49.094;11.900;2023-04-03T04:28:28;49.07;;;46.40;;
11620;SDS011;5866;49.094;11.900;2023-04-03T04:30:55;67.77;;;64.03;;
11620;SDS011;5866;49.094;11.900;2023-04-03T04:33:23;75.13;;;71.03;;
11620;SDS011;5866;49.094;11.900;2023-04-03T04:35:51;75.00;;;70.93;;
11620;SDS011;5866;49.094;11.900;2023-04-03T04:38:19;89.63;;;84.90;;
11620;SDS011;5866;49.094;11.900;2023-04-03T04:40:46;149.77;;;142.07;;
11620;SDS011;5866;49.094;11.900;2023-04-03T04:43:16;90.57;;;85.73;;
11620;SDS011;5866;49.094;11.900;2023-04-03T04:45:44;125.90;;;119.30;;
11620;SDS011;5866;49.094;11.900;2023-04-03T04:48:11;148.77;;;141.17;;
11620;SDS011;5866;49.094;11.900;2023-04-03T04:50:39;134.27;;;127.33;;
11620;SDS011;5866;49.094;11.900;2023-04-03T04:53:06;154.40;;;146.57;;
11620;SDS011;5866;49.094;11.900;2023-04-03T04:55:34;194.73;;;185.00;;
11620;SDS011;5866;49.094;11.900;2023-04-03T04:58:02;172.50;;;163.80;;
11620;SDS011;5866;49.094;11.900;2023-04-03T05:00:31;164.03;;;155.67;;
11620;SDS011;5866;49.094;11.900;2023-04-03T05:02:58;175.13;;;166.10;;
11620;SDS011;5866;49.094;11.900;2023-04-03T05:05:26;111.00;;;105.03;;
11620;SDS011;5866;49.094;11.900;2023-04-03T05:07:53;177.80;;;168.77;;
11620;SDS011;5866;49.094;11.900;2023-04-03T05:10:21;199.73;;;189.97;;
11620;SDS011;5866;49.094;11.900;2023-04-03T05:12:48;202.37;;;192.47;;
11620;SDS011;5866;49.094;11.900;2023-04-03T05:15:16;207.23;;;196.93;;
11620;SDS011;5866;49.094;11.900;2023-04-03T05:17:45;101.20;;;95.90;;
11620;SDS011;5866;49.094;11.900;2023-04-03T05:20:12;99.93;;;94.60;;
11620;SDS011;5866;49.094;11.900;2023-04-03T05:22:40;62.17;;;58.87;;
11620;SDS011;5866;49.094;11.900;2023-04-03T05:25:08;42.53;;;40.03;;
11620;SDS011;5866;49.094;11.900;2023-04-03T05:27:36;18.83;;;17.40;;
11620;SDS011;5866;49.094;11.900;2023-04-03T05:30:03;22.90;;;21.60;;
11620;SDS011;5866;49.094;11.900;2023-04-03T05:32:32;13.63;;;12.73;;
11620;SDS011;5866;49.094;11.900;2023-04-03T05:35:01;25.03;;;23.47;;
11620;SDS011;5866;49.094;11.900;2023-04-03T05:37:28;14.73;;;13.87;;
11620;SDS011;5866;49.094;11.900;2023-04-03T05:39:56;8.77;;;8.17;;
11620;SDS011;5866;49.094;11.900;2023-04-03T05:42:23;10.37;;;9.60;;
11620;SDS011;5866;49.094;11.900;2023-04-03T05:44:51;5.50;;;5.00;;
11620;SDS011;5866;49.094;11.900;2023-04-03T05:47:19;7.00;;;5.43;;
11620;SDS011;5866;49.094;11.900;2023-04-03T05:49:46;5.13;;;4.70;;
11620;SDS011;5866;49.094;11.900;2023-04-03T05:52:19;5.00;;;4.60;;
11620;SDS011;5866;49.094;11.900;2023-04-03T05:54:48;5.77;;;4.93;;
11620;SDS011;5866;49.094;11.900;2023-04-03T05:57:16;5.93;;;5.10;;
11620;SDS011;5866;49.094;11.900;2023-04-03T05:59:44;6.87;;;5.67;;
11620;SDS011;5866;49.094;11.900;2023-04-03T06:02:13;6.10;;;5.50;;
11620;SDS011;5866;49.094;11.900;2023-04-03T06:04:41;5.63;;;5.13;;
11620;SDS011;5866;49.094;11.900;2023-04-03T06:07:10;5.17;;;4.77;;
11620;SDS011;5866;49.094;11.900;2023-04-03T06:09:41;5.20;;;4.70;;
11620;SDS011;5866;49.094;11.900;2023-04-03T06:12:09;5.30;;;4.53;;
11620;SDS011;5866;49.094;11.900;2023-04-03T06:14:37;5.50;;;5.03;;
11620;SDS011;5866;49.094;11.900;2023-04-03T06:17:04;7.70;;;5.43;;
11620;SDS011;5866;49.094;11.900;2023-04-03T06:19:32;6.03;;;5.53;;
11620;SDS011;5866;49.094;11.900;2023-04-03T06:22:00;6.53;;;5.93;;
11620;SDS011;5866;49.094;11.900;2023-04-03T06:24:29;12.30;;;11.40;;
11620;SDS011;5866;49.094;11.900;2023-04-03T06:26:58;7.10;;;6.47;;
11620;SDS011;5866;49.094;11.900;2023-04-03T06:29:26;9.30;;;6.80;;
11620;SDS011;5866;49.094;11.900;2023-04-03T06:31:53;13.13;;;12.33;;
11620;SDS011;5866;49.094;11.900;2023-04-03T06:34:21;14.67;;;13.67;;
11620;SDS011;5866;49.094;11.900;2023-04-03T06:36:49;8.77;;;8.17;;
11620;SDS011;5866;49.094;11.900;2023-04-03T06:39:18;9.93;;;9.20;;
11620;SDS011;5866;49.094;11.900;2023-04-03T06:41:48;10.53;;;9.70;;
11620;SDS011;5866;49.094;11.900;2023-04-03T06:44:17;12.47;;;11.67;;
11620;SDS011;5866;49.094;11.900;2023-04-03T06:46:45;13.37;;;12.37;;
11620;SDS011;5866;49.094;11.900;2023-04-03T06:49:12;12.03;;;11.33;;
11620;SDS011;5866;49.094;11.900;2023-04-03T06:51:41;9.60;;;9.00;;
11620;SDS011;5866;49.094;11.900;2023-04-03T06:54:08;7.83;;;7.13;;
11620;SDS011;5866;49.094;11.900;2023-04-03T06:56:36;9.40;;;8.60;;
11620;SDS011;5866;49.094;11.900;2023-04-03T06:59:03;13.80;;;12.80;;
11620;SDS011;5866;49.094;11.900;2023-04-03T07:01:32;12.60;;;11.73;;
11620;SDS011;5866;49.094;11.900;2023-04-03T07:04:00;15.63;;;14.57;;
11620;SDS011;5866;49.094;11.900;2023-04-03T07:06:28;15.00;;;13.90;;
11620;SDS011;5866;49.094;11.900;2023-04-03T07:08:57;13.77;;;12.83;;
11620;SDS011;5866;49.094;11.900;2023-04-03T07:11:24;13.13;;;12.27;;
11620;SDS011;5866;49.094;11.900;2023-04-03T07:13:52;13.53;;;12.67;;
11620;SDS011;5866;49.094;11.900;2023-04-03T07:16:20;11.00;;;10.20;;
11620;SDS011;5866;49.094;11.900;2023-04-03T07:18:48;11.73;;;10.87;;
11620;SDS011;5866;49.094;11.900;2023-04-03T07:21:17;7.03;;;6.33;;
11620;SDS011;5866;49.094;11.900;2023-04-03T07:23:44;6.07;;;5.47;;
11620;SDS011;5866;49.094;11.900;2023-04-03T07:26:12;6.27;;;5.10;;
11620;SDS011;5866;49.094;11.900;2023-04-03T07:28:39;6.67;;;6.07;;
11620;SDS011;5866;49.094;11.900;2023-04-03T07:31:08;6.27;;;5.67;;
11620;SDS011;5866;49.094;11.900;2023-04-03T07:33:40;6.33;;;5.73;;
11620;SDS011;5866;49.094;11.900;2023-04-03T07:36:10;10.23;;;9.53;;
11620;SDS011;5866;49.094;11.900;2023-04-03T07:38:41;12.37;;;11.47;;
11620;SDS011;5866;49.094;11.900;2023-04-03T07:41:10;12.63;;;11.73;;
11620;SDS011;5866;49.094;11.900;2023-04-03T07:43:41;12.17;;;11.47;;
11620;SDS011;5866;49.094;11.900;2023-04-03T07:46:08;9.90;;;9.17;;
11620;SDS011;5866;49.094;11.900;2023-04-03T07:48:36;9.30;;;8.80;;
11620;SDS011;5866;49.094;11.900;2023-04-03T07:51:04;16.10;;;15.10;;
11620;SDS011;5866;49.094;11.900;2023-04-03T07:53:34;15.40;;;14.40;;
11620;SDS011;5866;49.094;11.900;2023-04-03T07:56:01;15.10;;;14.20;;
11620;SDS011;5866;49.094;11.900;2023-04-03T07:58:29;19.40;;;18.00;;
11620;SDS011;5866;49.094;11.900;2023-04-03T08:00:57;16.93;;;16.00;;
11620;SDS011;5866;49.094;11.900;2023-04-03T08:03:24;17.57;;;16.60;;
11620;SDS011;5866;49.094;11.900;2023-04-03T08:05:52;20.83;;;19.67;;
11620;SDS011;5866;49.094;11.900;2023-04-03T08:08:21;23.93;;;22.43;;
11620;SDS011;5866;49.094;11.900;2023-04-03T08:10:51;20.63;;;19.37;;
11620;SDS011;5866;49.094;11.900;2023-04-03T08:13:19;22.13;;;20.83;;
11620;SDS011;5866;49.094;11.900;2023-04-03T08:15:48;22.77;;;21.47;;
11620;SDS011;5866;49.094;11.900;2023-04-03T08:18:16;22.20;;;20.70;;
11620;SDS011;5866;49.094;11.900;2023-04-03T08:20:44;19.03;;;17.73;;
11620;SDS011;5866;49.094;11.900;2023-04-03T08:23:12;20.83;;;19.63;;
11620;SDS011;5866;49.094;11.900;2023-04-03T08:25:40;7.33;;;6.93;;
11620;SDS011;5866;49.094;11.900;2023-04-03T08:28:10;3.37;;;2.80;;
11620;SDS011;5866;49.094;11.900;2023-04-03T08:30:38;3.20;;;2.83;;
11620;SDS011;5866;49.094;11.900;2023-04-03T08:33:07;3.53;;;3.33;;
11620;SDS011;5866;49.094;11.900;2023-04-03T08:35:37;3.30;;;2.70;;
11620;SDS011;5866;49.094;11.900;2023-04-03T08:38:07;3.27;;;3.00;;
11620;SDS011;5866;49.094;11.900;2023-04-03T08:40:35;3.60;;;3.07;;
11620;SDS011;5866;49.094;11.900;2023-04-03T08:43:14;3.67;;;2.97;;
11620;SDS011;5866;49.094;11.900;2023-04-03T08:45:55;5.33;;;3.30;;
11620;SDS011;5866;49.094;11.900;2023-04-03T08:48:26;3.67;;;3.37;;
11620;SDS011;5866;49.094;11.900;2023-04-03T08:50:59;3.30;;;2.73;;
11620;SDS011;5866;49.094;11.900;2023-04-03T08:53:32;2.97;;;2.67;;
11620;SDS011;5866;49.094;11.900;2023-04-03T08:56:03;6.40;;;3.30;;
11620;SDS011;5866;49.094;11.900;2023-04-03T08:58:39;3.70;;;3.40;;
11620;SDS011;5866;49.094;11.900;2023-04-03T09:01:15;4.67;;;4.33;;
11620;SDS011;5866;49.094;11.900;2023-04-03T09:03:46;3.37;;;3.17;;
11620;SDS011;5866;49.094;11.900;2023-04-03T09:06:14;3.60;;;3.40;;
11620;SDS011;5866;49.094;11.900;2023-04-03T09:08:47;4.83;;;4.43;;
11620;SDS011;5866;49.094;11.900;2023-04-03T09:11:21;5.27;;;4.97;;
11620;SDS011;5866;49.094;11.900;2023-04-03T09:13:56;7.00;;;6.50;;
11620;SDS011;5866;49.094;11.900;2023-04-03T09:16:33;6.70;;;6.20;;
11620;SDS011;5866;49.094;11.900;2023-04-03T09:19:09;6.43;;;6.03;;
11620;SDS011;5866;49.094;11.900;2023-04-03T09:21:45;5.57;;;5.27;;
11620;SDS011;5866;49.094;11.900;2023-04-03T09:24:14;5.03;;;4.63;;
11620;SDS011;5866;49.094;11.900;2023-04-03T09:26:43;6.57;;;6.07;;
11620;SDS011;5866;49.094;11.900;2023-04-03T09:29:18;6.37;;;5.97;;
11620;SDS011;5866;49.094;11.900;2023-04-03T09:31:48;6.20;;;5.80;;
11620;SDS011;5866;49.094;11.900;2023-04-03T09:34:18;7.90;;;7.40;;
11620;SDS011;5866;49.094;11.900;2023-04-03T09:36:49;8.83;;;8.33;;
11620;SDS011;5866;49.094;11.900;2023-04-03T09:39:19;8.87;;;8.37;;
11620;SDS011;5866;49.094;11.900;2023-04-03T09:41:55;8.47;;;7.97;;
11620;SDS011;5866;49.094;11.900;2023-04-03T09:44:27;8.57;;;7.97;;
11620;SDS011;5866;49.094;11.900;2023-04-03T09:46:57;8.53;;;8.03;;
11620;SDS011;5866;49.094;11.900;2023-04-03T09:49:25;8.93;;;8.43;;
11620;SDS011;5866;49.094;11.900;2023-04-03T09:51:53;7.33;;;6.93;;
11620;SDS011;5866;49.094;11.900;2023-04-03T09:54:24;6.87;;;6.47;;
11620;SDS011;5866;49.094;11.900;2023-04-03T09:57:04;7.53;;;7.13;;
11620;SDS011;5866;49.094;11.900;2023-04-03T09:59:36;9.40;;;8.70;;
11620;SDS011;5866;49.094;11.900;2023-04-03T10:02:19;7.30;;;6.80;;
11620;SDS011;5866;49.094;11.900;2023-04-03T10:04:52;6.73;;;6.33;;
11620;SDS011;5866;49.094;11.900;2023-04-03T10:07:34;7.60;;;7.10;;
11620;SDS011;5866;49.094;11.900;2023-04-03T10:10:16;7.23;;;6.83;;
11620;SDS011;5866;49.094;11.900;2023-04-03T10:12:46;8.13;;;7.53;;
11620;SDS011;5866;49.094;11.900;2023-04-03T10:15:16;6.87;;;6.27;;
11620;SDS011;5866;49.094;11.900;2023-04-03T10:17:51;7.00;;;6.60;;
11620;SDS011;5866;49.094;11.900;2023-04-03T10:20:28;7.43;;;7.03;;
11620;SDS011;5866;49.094;11.900;2023-04-03T10:23:12;6.83;;;6.47;;
11620;SDS011;5866;49.094;11.900;2023-04-03T10:25:43;7.23;;;6.83;;
11620;SDS011;5866;49.094;11.900;2023-04-03T10:28:24;5.43;;;5.13;;
11620;SDS011;5866;49.094;11.900;2023-04-03T10:31:01;6.20;;;5.87;;
11620;SDS011;5866;49.094;11.900;2023-04-03T10:33:44;7.07;;;6.70;;
11620;SDS011;5866;49.094;11.900;2023-04-03T10:36:20;8.47;;;7.77;;
11620;SDS011;5866;49.094;11.900;2023-04-03T10:38:58;8.43;;;7.93;;
11620;SDS011;5866;49.094;11.900;2023-04-03T10:41:39;8.47;;;7.77;;
11620;SDS011;5866;49.094;11.900;2023-04-03T10:44:15;7.10;;;6.70;;
11620;SDS011;5866;49.094;11.900;2023-04-03T10:46:58;6.10;;;5.80;;
11620;SDS011;5866;49.094;11.900;2023-04-03T10:49:36;5.72;;;5.35;;
11620;SDS011;5866;49.094;11.900;2023-04-03T10:52:17;6.27;;;5.87;;
11620;SDS011;5866;49.094;11.900;2023-04-03T10:54:52;6.57;;;6.07;;
11620;SDS011;5866;49.094;11.900;2023-04-03T10:57:28;5.77;;;5.47;;
11620;SDS011;5866;49.094;11.900;2023-04-03T10:59:57;4.68;;;4.40;;
11620;SDS011;5866;49.094;11.900;2023-04-03T11:02:30;7.53;;;7.13;;
11620;SDS011;5866;49.094;11.900;2023-04-03T11:05:00;5.70;;;5.20;;
11620;SDS011;5866;49.094;11.900;2023-04-03T11:07:36;6.87;;;6.47;;
11620;SDS011;5866;49.094;11.900;2023-04-03T11:10:09;6.13;;;5.80;;
11620;SDS011;5866;49.094;11.900;2023-04-03T11:12:43;5.63;;;5.33;;
11620;SDS011;5866;49.094;11.900;2023-04-03T11:15:15;5.93;;;5.63;;
11620;SDS011;5866;49.094;11.900;2023-04-03T11:17:46;7.57;;;7.03;;
11620;SDS011;5866;49.094;11.900;2023-04-03T11:20:20;5.63;;;5.33;;
11620;SDS011;5866;49.094;11.900;2023-04-03T11:22:56;6.20;;;5.80;;
11620;SDS011;5866;49.094;11.900;2023-04-03T11:25:27;5.90;;;5.60;;
11620;SDS011;5866;49.094;11.900;2023-04-03T11:27:58;5.83;;;5.50;;
11620;SDS011;5866;49.094;11.900;2023-04-03T11:30:28;5.70;;;5.35;;
11620;SDS011;5866;49.094;11.900;2023-04-03T11:33:05;6.43;;;5.93;;
11620;SDS011;5866;49.094;11.900;2023-04-03T11:35:44;7.03;;;6.57;;
11620;SDS011;5866;49.094;11.900;2023-04-03T11:38:17;8.47;;;7.97;;
11620;SDS011;5866;49.094;11.900;2023-04-03T11:40:49;7.47;;;7.07;;
11620;SDS011;5866;49.094;11.900;2023-04-03T11:43:21;7.30;;;6.80;;
11620;SDS011;5866;49.094;11.900;2023-04-03T11:45:56;6.77;;;6.37;;
11620;SDS011;5866;49.094;11.900;2023-04-03T11:57:22;6.50;;;6.20;;
11620;SDS011;5866;49.094;11.900;2023-04-03T12:09:26;6.90;;;6.43;;
11620;SDS011;5866;49.094;11.900;2023-04-03T12:11:56;5.47;;;5.07;;
11620;SDS011;5866;49.094;11.900;2023-04-03T12:14:26;4.93;;;4.53;;
11620;SDS011;5866;49.094;11.900;2023-04-03T12:16:56;7.13;;;6.72;;
11620;SDS011;5866;49.094;11.900;2023-04-03T12:19:30;5.17;;;4.87;;
11620;SDS011;5866;49.094;11.900;2023-04-03T12:22:11;6.17;;;5.87;;
11620;SDS011;5866;49.094;11.900;2023-04-03T12:24:43;6.35;;;6.05;;
11620;SDS011;5866;49.094;11.900;2023-04-03T12:30:04;6.35;;;6.05;;
11620;SDS011;5866;49.094;11.900;2023-04-03T12:32:43;4.45;;;4.15;;
11620;SDS011;5866;49.094;11.900;2023-04-03T12:35:27;5.50;;;5.20;;
11620;SDS011;5866;49.094;11.900;2023-04-03T12:41:03;5.65;;;5.35;;
11620;SDS011;5866;49.094;11.900;2023-04-03T12:43:48;6.77;;;6.17;;
11620;SDS011;5866;49.094;11.900;2023-04-03T12:46:28;6.40;;;6.00;;
11620;SDS011;5866;49.094;11.900;2023-04-03T12:49:05;7.77;;;7.37;;
11620;SDS011;5866;49.094;11.900;2023-04-03T12:51:45;7.27;;;6.83;;
11620;SDS011;5866;49.094;11.900;2023-04-03T12:54:14;7.63;;;7.13;;
11620;SDS011;5866;49.094;11.900;2023-04-03T12:56:46;7.77;;;7.27;;
11620;SDS011;5866;49.094;11.900;2023-04-03T12:59:14;6.23;;;5.83;;
11620;SDS011;5866;49.094;11.900;2023-04-03T13:01:43;6.63;;;6.30;;
11620;SDS011;5866;49.094;11.900;2023-04-03T13:04:11;5.80;;;5.50;;
11620;SDS011;5866;49.094;11.900;2023-04-03T13:06:39;8.70;;;8.20;;
11620;SDS011;5866;49.094;11.900;2023-04-03T13:09:17;6.07;;;5.70;;
11620;SDS011;5866;49.094;11.900;2023-04-03T13:11:50;6.37;;;5.97;;
11620;SDS011;5866;49.094;11.900;2023-04-03T13:14:22;7.43;;;6.93;;
11620;SDS011;5866;49.094;11.900;2023-04-03T13:16:52;6.40;;;6.00;;
11620;SDS011;5866;49.094;11.900;2023-04-03T13:19:22;7.07;;;6.40;;
11620;SDS011;5866;49.094;11.900;2023-04-03T13:21:54;5.60;;;5.25;;
11620;SDS011;5866;49.094;11.900;2023-04-03T13:24:27;5.72;;;5.13;;
11620;SDS011;5866;49.094;11.900;2023-04-03T13:26:57;5.88;;;5.47;;
11620;SDS011;5866;49.094;11.900;2023-04-03T13:29:26;4.60;;;4.30;;
11620;SDS011;5866;49.094;11.900;2023-04-03T13:31:57;5.95;;;5.63;;
11620;SDS011;5866;49.094;11.900;2023-04-03T13:34:28;5.28;;;4.97;;
11620;SDS011;5866;49.094;11.900;2023-04-03T13:36:59;6.35;;;5.97;;
11620;SDS011;5866;49.094;11.900;2023-04-03T13:39:30;6.97;;;6.47;;
11620;SDS011;5866;49.094;11.900;2023-04-03T13:42:00;6.25;;;5.85;;
11620;SDS011;5866;49.094;11.900;2023-04-03T13:44:41;5.32;;;5.03;;
11620;SDS011;5866;49.094;11.900;2023-04-03T13:47:17;6.00;;;5.45;;
11620;SDS011;5866;49.094;11.900;2023-04-03T13:49:58;6.53;;;6.13;;
11620;SDS011;5866;49.094;11.900;2023-04-03T13:52:28;6.63;;;6.23;;
11620;SDS011;5866;49.094;11.900;2023-04-03T13:54:59;7.67;;;7.17;;
11620;SDS011;5866;49.094;11.900;2023-04-03T13:57:34;6.97;;;6.57;;
11620;SDS011;5866;49.094;11.900;2023-04-03T14:03:01;6.40;;;6.00;;
11620;SDS011;5866;49.094;11.900;2023-04-03T14:05:29;6.33;;;5.93;;
11620;SDS011;5866;49.094;11.900;2023-04-03T14:07:57;6.03;;;5.45;;
11620;SDS011;5866;49.094;11.900;2023-04-03T14:10:25;5.57;;;5.28;;
11620;SDS011;5866;49.094;11.900;2023-04-03T14:12:53;6.72;;;5.72;;
11620;SDS011;5866;49.094;11.900;2023-04-03T14:15:23;7.73;;;7.03;;
11620;SDS011;5866;49.094;11.900;2023-04-03T14:17:52;7.53;;;7.10;;
11620;SDS011;5866;49.094;11.900;2023-04-03T14:20:21;7.20;;;6.70;;
11620;SDS011;5866;49.094;11.900;2023-04-03T14:22:50;5.88;;;5.53;;
11620;SDS011;5866;49.094;11.900;2023-04-03T14:25:20;6.15;;;5.75;;
11620;SDS011;5866;49.094;11.900;2023-04-03T14:27:50;6.60;;;6.20;;
11620;SDS011;5866;49.094;11.900;2023-04-03T14:30:23;6.30;;;5.90;;
11620;SDS011;5866;49.094;11.900;2023-04-03T14:32:53;6.20;;;5.70;;
11620;SDS011;5866;49.094;11.900;2023-04-03T14:35:20;7.10;;;6.63;;
11620;SDS011;5866;49.094;11.900;2023-04-03T14:37:48;6.13;;;5.82;;
11620;SDS011;5866;49.094;11.900;2023-04-03T14:40:18;6.80;;;6.45;;
11620;SDS011;5866;49.094;11.900;2023-04-03T14:42:49;6.33;;;5.97;;
11620;SDS011;5866;49.094;11.900;2023-04-03T14:45:17;6.57;;;5.93;;
11620;SDS011;5866;49.094;11.900;2023-04-03T14:47:47;7.70;;;7.20;;
11620;SDS011;5866;49.094;11.900;2023-04-03T14:50:17;7.33;;;6.83;;
11620;SDS011;5866;49.094;11.900;2023-04-03T14:52:47;8.67;;;7.93;;
11620;SDS011;5866;49.094;11.900;2023-04-03T14:55:16;7.77;;;7.27;;
11620;SDS011;5866;49.094;11.900;2023-04-03T14:57:46;7.67;;;7.03;;
11620;SDS011;5866;49.094;11.900;2023-04-03T15:00:14;7.60;;;6.87;;
11620;SDS011;5866;49.094;11.900;2023-04-03T15:02:44;8.27;;;7.77;;
11620;SDS011;5866;49.094;11.900;2023-04-03T15:05:14;7.67;;;7.17;;
11620;SDS011;5866;49.094;11.900;2023-04-03T15:07:43;8.47;;;7.87;;
11620;SDS011;5866;49.094;11.900;2023-04-03T15:10:15;8.47;;;7.87;;
11620;SDS011;5866;49.094;11.900;2023-04-03T15:12:44;8.77;;;8.17;;
11620;SDS011;5866;49.094;11.900;2023-04-03T15:15:13;8.60;;;8.10;;
11620;SDS011;5866;49.094;11.900;2023-04-03T15:17:46;9.30;;;8.63;;
11620;SDS011;5866;49.094;11.900;2023-04-03T15:20:22;8.93;;;8.33;;
11620;SDS011;5866;49.094;11.900;2023-04-03T15:22:51;8.27;;;7.60;;
11620;SDS011;5866;49.094;11.900;2023-04-03T15:25:18;7.87;;;7.27;;